sensor_id;sensor_type;location;lat;lon;timestamp;pressure;altitude;pressure_sealevel;temperature;humidity
14689;BME280;7432;48.728;9.154;2023-03-01T00:00:04;97261.47;;;-0.98;76.19
14689;BME280;7432;48.728;9.154;2023-03-01T00:02:32;97262.59;;;-1.04;76.27
14689;BME280;7432;48.728;9.154;2023-03-01T00:04:58;97264.56;;;-1.10;76.84
14689;BME280;7432;48.728;9.154;2023-03-01T00:07:24;97266.13;;;-1.08;76.36
14689;BME280;7432;48.728;9.154;2023-03-01T00:09:52;97256.25;;;-1.12;76.91
14689;BME280;7432;48.728;9.154;2023-03-01T00:12:19;97257.03;;;-1.12;76.94
14689;BME280;7432;48.728;9.154;2023-03-01T00:14:46;97266.63;;;-1.18;76.54
14689;BME280;7432;48.728;9.154;2023-03-01T00:17:12;97263.75;;;-1.11;76.65
14689;BME280;7432;48.728;9.154;2023-03-01T00:19:38;97270.44;;;-1.10;76.84
14689;BME280;7432;48.728;9.154;2023-03-01T00:22:05;97275.38;;;-1.07;76.54
14689;BME280;7432;48.728;9.154;2023-03-01T00:24:31;97267.97;;;-1.11;76.69
14689;BME280;7432;48.728;9.154;2023-03-01T00:26:59;97267.97;;;-1.11;77.17
14689;BME280;7432;48.728;9.154;2023-03-01T00:29:25;97267.38;;;-1.16;77.08
14689;BME280;7432;48.728;9.154;2023-03-01T00:31:51;97264.16;;;-1.20;77.60
14689;BME280;7432;48.728;9.154;2023-03-01T00:34:18;97264.00;;;-1.17;77.21
14689;BME280;7432;48.728;9.154;2023-03-01T00:36:44;97264.72;;;-1.32;77.34
14689;BME280;7432;48.728;9.154;2023-03-01T00:39:14;97259.25;;;-1.42;77.45
14689;BME280;7432;48.728;9.154;2023-03-01T00:41:41;97261.09;;;-1.45;78.25
14689;BME280;7432;48.728;9.154;2023-03-01T00:44:09;97254.50;;;-1.48;78.43
14689;BME280;7432;48.728;9.154;2023-03-01T00:46:36;97248.66;;;-1.50;78.47
14689;BME280;7432;48.728;9.154;2023-03-01T00:49:03;97255.44;;;-1.50;79.18
14689;BME280;7432;48.728;9.154;2023-03-01T00:51:30;97254.63;;;-1.51;79.02
14689;BME280;7432;48.728;9.154;2023-03-01T00:54:01;97225.00;;;-1.66;78.68
14689;BME280;7432;48.728;9.154;2023-03-01T00:56:28;97256.31;;;-1.51;78.83
14689;BME280;7432;48.728;9.154;2023-03-01T00:58:54;97249.16;;;-1.42;78.59
14689;BME280;7432;48.728;9.154;2023-03-01T01:01:24;97246.00;;;-1.47;78.91
14689;BME280;7432;48.728;9.154;2023-03-01T01:03:54;97243.44;;;-1.45;79.02
14689;BME280;7432;48.728;9.154;2023-03-01T01:06:23;97223.06;;;-1.61;78.81
14689;BME280;7432;48.728;9.154;2023-03-01T01:08:51;97243.34;;;-1.44;78.53
14689;BME280;7432;48.728;9.154;2023-03-01T01:11:18;97241.78;;;-1.46;79.12
14689;BME280;7432;48.728;9.154;2023-03-01T01:13:46;97238.69;;;-1.53;79.63
14689;BME280;7432;48.728;9.154;2023-03-01T01:16:13;97238.88;;;-1.56;79.32
14689;BME280;7432;48.728;9.154;2023-03-01T01:18:41;97237.25;;;-1.58;80.12
14689;BME280;7432;48.728;9.154;2023-03-01T01:21:10;97239.88;;;-1.60;79.20
14689;BME280;7432;48.728;9.154;2023-03-01T01:23:37;97238.22;;;-1.61;79.10
14689;BME280;7432;48.728;9.154;2023-03-01T01:26:05;97236.66;;;-1.63;79.65
14689;BME280;7432;48.728;9.154;2023-03-01T01:28:32;97237.09;;;-1.54;78.63
14689;BME280;7432;48.728;9.154;2023-03-01T01:30:59;97227.59;;;-1.49;79.07
14689;BME280;7432;48.728;9.154;2023-03-01T01:33:25;97223.22;;;-1.45;78.20
14689;BME280;7432;48.728;9.154;2023-03-01T01:35:53;97223.38;;;-1.48;78.71
14689;BME280;7432;48.728;9.154;2023-03-01T01:38:20;97222.75;;;-1.53;79.36
14689;BME280;7432;48.728;9.154;2023-03-01T01:40:48;97216.94;;;-1.55;78.73
14689;BME280;7432;48.728;9.154;2023-03-01T01:43:19;97224.66;;;-1.58;78.97
14689;BME280;7432;48.728;9.154;2023-03-01T01:45:46;97222.13;;;-1.58;79.81
14689;BME280;7432;48.728;9.154;2023-03-01T01:48:15;97216.41;;;-1.62;79.79
14689;BME280;7432;48.728;9.154;2023-03-01T01:50:43;97217.16;;;-1.60;80.28
14689;BME280;7432;48.728;9.154;2023-03-01T01:53:13;97214.84;;;-1.64;79.66
14689;BME280;7432;48.728;9.154;2023-03-01T01:55:43;97219.53;;;-1.57;80.39
14689;BME280;7432;48.728;9.154;2023-03-01T01:58:15;97215.34;;;-1.39;79.22
14689;BME280;7432;48.728;9.154;2023-03-01T02:00:44;97179.69;;;-1.50;79.18
14689;BME280;7432;48.728;9.154;2023-03-01T02:03:12;97202.19;;;-1.27;79.38
14689;BME280;7432;48.728;9.154;2023-03-01T02:05:47;97199.78;;;-1.30;78.75
14689;BME280;7432;48.728;9.154;2023-03-01T02:08:17;97202.97;;;-1.08;78.65
14689;BME280;7432;48.728;9.154;2023-03-01T02:10:45;97194.38;;;-1.04;78.30
14689;BME280;7432;48.728;9.154;2023-03-01T02:13:12;97186.63;;;-1.01;77.62
14689;BME280;7432;48.728;9.154;2023-03-01T02:15:40;97184.78;;;-0.97;77.85
14689;BME280;7432;48.728;9.154;2023-03-01T02:18:10;97181.06;;;-0.90;77.95
14689;BME280;7432;48.728;9.154;2023-03-01T02:20:44;97180.25;;;-0.91;77.65
14689;BME280;7432;48.728;9.154;2023-03-01T02:23:15;97178.38;;;-0.87;77.86
14689;BME280;7432;48.728;9.154;2023-03-01T02:25:47;97175.78;;;-0.86;77.76
14689;BME280;7432;48.728;9.154;2023-03-01T02:28:24;97166.19;;;-0.79;77.56
14689;BME280;7432;48.728;9.154;2023-03-01T02:30:51;97172.81;;;-0.77;76.79
14689;BME280;7432;48.728;9.154;2023-03-01T02:33:38;97162.19;;;-0.83;77.09
14689;BME280;7432;48.728;9.154;2023-03-01T02:36:08;97162.19;;;-0.83;77.34
14689;BME280;7432;48.728;9.154;2023-03-01T02:38:36;97161.13;;;-0.79;77.23
14689;BME280;7432;48.728;9.154;2023-03-01T02:41:04;97159.88;;;-0.71;77.00
14689;BME280;7432;48.728;9.154;2023-03-01T02:43:34;97154.59;;;-0.66;76.63
14689;BME280;7432;48.728;9.154;2023-03-01T02:46:04;97154.59;;;-0.66;76.05
14689;BME280;7432;48.728;9.154;2023-03-01T02:48:39;97152.44;;;-0.74;76.21
14689;BME280;7432;48.728;9.154;2023-03-01T02:51:12;97152.66;;;-0.78;76.75
14689;BME280;7432;48.728;9.154;2023-03-01T02:53:52;97156.75;;;-0.76;77.00
14689;BME280;7432;48.728;9.154;2023-03-01T02:56:21;97149.75;;;-0.71;76.67
14689;BME280;7432;48.728;9.154;2023-03-01T02:58:49;97141.88;;;-0.82;76.71
14689;BME280;7432;48.728;9.154;2023-03-01T03:01:17;97139.78;;;-0.74;76.83
14689;BME280;7432;48.728;9.154;2023-03-01T03:03:43;97137.50;;;-0.78;76.76
14689;BME280;7432;48.728;9.154;2023-03-01T03:06:10;97142.19;;;-0.88;77.04
14689;BME280;7432;48.728;9.154;2023-03-01T03:08:36;97132.59;;;-0.81;77.20
14689;BME280;7432;48.728;9.154;2023-03-01T03:11:03;97135.72;;;-0.93;77.46
14689;BME280;7432;48.728;9.154;2023-03-01T03:13:29;97135.41;;;-0.87;77.17
14689;BME280;7432;48.728;9.154;2023-03-01T03:15:58;97124.50;;;-0.88;77.62
14689;BME280;7432;48.728;9.154;2023-03-01T03:18:26;97126.69;;;-0.65;76.93
14689;BME280;7432;48.728;9.154;2023-03-01T03:20:53;97126.03;;;-0.68;76.55
14689;BME280;7432;48.728;9.154;2023-03-01T03:23:21;97123.44;;;-0.84;76.52
14689;BME280;7432;48.728;9.154;2023-03-01T03:25:48;97128.78;;;-0.90;77.00
14689;BME280;7432;48.728;9.154;2023-03-01T03:28:14;97125.47;;;-0.90;77.67
14689;BME280;7432;48.728;9.154;2023-03-01T03:30:41;97125.63;;;-0.93;77.73
14689;BME280;7432;48.728;9.154;2023-03-01T03:33:10;97127.22;;;-0.92;77.32
14689;BME280;7432;48.728;9.154;2023-03-01T03:35:40;97121.16;;;-0.88;77.55
14689;BME280;7432;48.728;9.154;2023-03-01T03:38:08;97119.44;;;-0.88;77.37
14689;BME280;7432;48.728;9.154;2023-03-01T03:40:42;97119.00;;;-0.96;77.74
14689;BME280;7432;48.728;9.154;2023-03-01T03:43:12;97124.66;;;-0.91;77.58
14689;BME280;7432;48.728;9.154;2023-03-01T03:45:38;97125.00;;;-0.98;78.23
14689;BME280;7432;48.728;9.154;2023-03-01T03:48:06;97122.13;;;-0.91;77.68
14689;BME280;7432;48.728;9.154;2023-03-01T03:50:36;97125.75;;;-0.79;77.64
14689;BME280;7432;48.728;9.154;2023-03-01T03:53:05;97121.59;;;-0.80;77.33
14689;BME280;7432;48.728;9.154;2023-03-01T03:55:31;97128.06;;;-0.75;77.24
14689;BME280;7432;48.728;9.154;2023-03-01T03:58:00;97116.75;;;-0.68;77.15
14689;BME280;7432;48.728;9.154;2023-03-01T04:00:32;97118.00;;;-0.59;77.23
14689;BME280;7432;48.728;9.154;2023-03-01T04:02:59;97113.31;;;-0.67;77.01
14689;BME280;7432;48.728;9.154;2023-03-01T04:05:27;97082.75;;;-0.79;76.42
14689;BME280;7432;48.728;9.154;2023-03-01T04:07:55;97103.56;;;-0.57;76.94
14689;BME280;7432;48.728;9.154;2023-03-01T04:10:28;97106.91;;;-0.56;76.49
14689;BME280;7432;48.728;9.154;2023-03-01T04:12:55;97099.91;;;-0.51;77.08
14689;BME280;7432;48.728;9.154;2023-03-01T04:15:22;97100.81;;;-0.52;76.87
14689;BME280;7432;48.728;9.154;2023-03-01T04:17:51;97095.66;;;-0.51;76.06
14689;BME280;7432;48.728;9.154;2023-03-01T04:20:19;97092.97;;;-0.48;76.28
14689;BME280;7432;48.728;9.154;2023-03-01T04:22:50;97093.44;;;-0.57;76.68
14689;BME280;7432;48.728;9.154;2023-03-01T04:25:19;97094.84;;;-0.51;76.27
14689;BME280;7432;48.728;9.154;2023-03-01T04:27:45;97090.75;;;-0.54;76.59
14689;BME280;7432;48.728;9.154;2023-03-01T04:30:12;97095.19;;;-0.57;76.84
14689;BME280;7432;48.728;9.154;2023-03-01T04:32:38;97096.72;;;-0.55;76.44
14689;BME280;7432;48.728;9.154;2023-03-01T04:35:05;97095.91;;;-0.55;76.20
14689;BME280;7432;48.728;9.154;2023-03-01T04:37:32;97087.81;;;-0.62;76.00
14689;BME280;7432;48.728;9.154;2023-03-01T04:39:58;97095.09;;;-0.56;76.67
14689;BME280;7432;48.728;9.154;2023-03-01T04:42:26;97081.88;;;-0.61;77.30
14689;BME280;7432;48.728;9.154;2023-03-01T04:44:52;97096.56;;;-0.52;76.77
14689;BME280;7432;48.728;9.154;2023-03-01T04:47:18;97087.19;;;-0.50;76.87
14689;BME280;7432;48.728;9.154;2023-03-01T04:49:45;97081.88;;;-0.45;76.79
14689;BME280;7432;48.728;9.154;2023-03-01T04:52:11;97084.34;;;-0.44;77.03
14689;BME280;7432;48.728;9.154;2023-03-01T04:54:38;97081.50;;;-0.38;77.09
14689;BME280;7432;48.728;9.154;2023-03-01T04:57:04;97087.13;;;-0.33;76.85
14689;BME280;7432;48.728;9.154;2023-03-01T04:59:32;97083.56;;;-0.29;76.32
14689;BME280;7432;48.728;9.154;2023-03-01T05:02:01;97088.38;;;-0.24;75.83
14689;BME280;7432;48.728;9.154;2023-03-01T05:04:27;97089.28;;;-0.25;76.51
14689;BME280;7432;48.728;9.154;2023-03-01T05:06:53;97076.13;;;-0.32;76.67
14689;BME280;7432;48.728;9.154;2023-03-01T05:09:21;97092.69;;;-0.26;76.98
14689;BME280;7432;48.728;9.154;2023-03-01T05:11:47;97091.06;;;-0.27;77.16
14689;BME280;7432;48.728;9.154;2023-03-01T05:14:13;97085.94;;;-0.26;76.20
14689;BME280;7432;48.728;9.154;2023-03-01T05:16:41;97083.41;;;-0.26;76.56
14689;BME280;7432;48.728;9.154;2023-03-01T05:19:08;97083.41;;;-0.26;76.36
14689;BME280;7432;48.728;9.154;2023-03-01T05:21:40;97082.25;;;-0.20;75.89
14689;BME280;7432;48.728;9.154;2023-03-01T05:24:21;97082.81;;;-0.31;75.91
14689;BME280;7432;48.728;9.154;2023-03-01T05:26:47;97073.19;;;-0.24;75.99
14689;BME280;7432;48.728;9.154;2023-03-01T05:29:13;97077.25;;;-0.22;75.56
14689;BME280;7432;48.728;9.154;2023-03-01T05:31:41;97077.69;;;-0.14;75.17
14689;BME280;7432;48.728;9.154;2023-03-01T05:34:07;97071.47;;;-0.24;75.54
14689;BME280;7432;48.728;9.154;2023-03-01T05:36:34;97086.59;;;-0.22;75.66
14689;BME280;7432;48.728;9.154;2023-03-01T05:39:00;97083.66;;;-0.30;76.10
14689;BME280;7432;48.728;9.154;2023-03-01T05:41:26;97085.09;;;-0.26;75.56
14689;BME280;7432;48.728;9.154;2023-03-01T05:43:53;97086.50;;;-0.21;75.14
14689;BME280;7432;48.728;9.154;2023-03-01T05:46:19;97088.31;;;-0.23;75.47
14689;BME280;7432;48.728;9.154;2023-03-01T05:48:47;97085.97;;;-0.43;76.19
14689;BME280;7432;48.728;9.154;2023-03-01T05:51:13;97084.78;;;-0.36;76.17
14689;BME280;7432;48.728;9.154;2023-03-01T05:53:39;97077.94;;;-0.34;76.05
14689;BME280;7432;48.728;9.154;2023-03-01T05:56:07;97068.13;;;-0.40;75.94
14689;BME280;7432;48.728;9.154;2023-03-01T05:58:33;97071.88;;;-0.31;76.29
14689;BME280;7432;48.728;9.154;2023-03-01T06:01:00;97072.97;;;-0.20;75.61
14689;BME280;7432;48.728;9.154;2023-03-01T06:03:26;97078.75;;;-0.18;75.08
14689;BME280;7432;48.728;9.154;2023-03-01T06:05:57;97078.19;;;-0.23;75.82
14689;BME280;7432;48.728;9.154;2023-03-01T06:08:24;97077.50;;;-0.26;75.71
14689;BME280;7432;48.728;9.154;2023-03-01T06:10:52;97067.09;;;-0.20;75.61
14689;BME280;7432;48.728;9.154;2023-03-01T06:13:18;97065.34;;;-0.35;76.34
14689;BME280;7432;48.728;9.154;2023-03-01T06:15:45;97063.00;;;-0.38;76.13
14689;BME280;7432;48.728;9.154;2023-03-01T06:18:11;97066.00;;;-0.32;75.97
14689;BME280;7432;48.728;9.154;2023-03-01T06:20:38;97058.41;;;-0.32;76.25
14689;BME280;7432;48.728;9.154;2023-03-01T06:23:06;97059.75;;;-0.25;75.89
14689;BME280;7432;48.728;9.154;2023-03-01T06:25:33;97064.31;;;-0.16;75.75
14689;BME280;7432;48.728;9.154;2023-03-01T06:27:59;97065.53;;;-0.07;75.15
14689;BME280;7432;48.728;9.154;2023-03-01T06:30:26;97060.72;;;-0.12;75.36
14689;BME280;7432;48.728;9.154;2023-03-01T06:32:53;97060.47;;;-0.07;75.72
14689;BME280;7432;48.728;9.154;2023-03-01T06:35:25;97060.78;;;-0.13;75.50
14689;BME280;7432;48.728;9.154;2023-03-01T06:37:55;97062.69;;;-0.01;75.28
14689;BME280;7432;48.728;9.154;2023-03-01T06:40:23;97068.47;;;0.01;74.84
14689;BME280;7432;48.728;9.154;2023-03-01T06:42:50;97070.03;;;0.04;74.97
14689;BME280;7432;48.728;9.154;2023-03-01T06:45:18;97071.66;;;0.20;74.14
14689;BME280;7432;48.728;9.154;2023-03-01T06:47:45;97075.91;;;0.20;74.07
14689;BME280;7432;48.728;9.154;2023-03-01T06:50:12;97075.97;;;0.34;74.47
14689;BME280;7432;48.728;9.154;2023-03-01T06:52:39;97064.03;;;0.51;73.60
14689;BME280;7432;48.728;9.154;2023-03-01T06:55:06;97072.75;;;0.62;73.29
14689;BME280;7432;48.728;9.154;2023-03-01T06:57:34;97073.91;;;0.56;72.90
14689;BME280;7432;48.728;9.154;2023-03-01T07:00:01;97069.16;;;0.66;71.74
14689;BME280;7432;48.728;9.154;2023-03-01T07:02:27;97069.28;;;0.78;71.96
14689;BME280;7432;48.728;9.154;2023-03-01T07:04:53;97070.16;;;0.77;72.44
14689;BME280;7432;48.728;9.154;2023-03-01T07:07:20;97067.59;;;0.93;71.23
14689;BME280;7432;48.728;9.154;2023-03-01T07:09:48;97062.81;;;1.02;70.61
14689;BME280;7432;48.728;9.154;2023-03-01T07:12:14;97069.59;;;1.02;71.19
14689;BME280;7432;48.728;9.154;2023-03-01T07:14:43;97061.84;;;1.19;69.91
14689;BME280;7432;48.728;9.154;2023-03-01T07:17:09;97058.69;;;0.86;70.86
14689;BME280;7432;48.728;9.154;2023-03-01T07:19:36;97055.47;;;0.98;70.36
14689;BME280;7432;48.728;9.154;2023-03-01T07:22:03;97058.88;;;0.83;70.55
14689;BME280;7432;48.728;9.154;2023-03-01T07:24:32;97054.66;;;0.97;69.58
14689;BME280;7432;48.728;9.154;2023-03-01T07:26:59;97053.97;;;1.24;69.37
14689;BME280;7432;48.728;9.154;2023-03-01T07:29:25;97054.25;;;1.47;68.08
14689;BME280;7432;48.728;9.154;2023-03-01T07:31:55;97055.19;;;2.01;66.86
14689;BME280;7432;48.728;9.154;2023-03-01T07:34:21;97047.75;;;2.52;64.95
14689;BME280;7432;48.728;9.154;2023-03-01T07:36:48;97041.38;;;3.11;62.51
14689;BME280;7432;48.728;9.154;2023-03-01T07:39:14;97048.69;;;3.66;60.89
14689;BME280;7432;48.728;9.154;2023-03-01T07:41:41;97044.63;;;4.36;59.73
14689;BME280;7432;48.728;9.154;2023-03-01T07:44:07;97042.22;;;5.04;56.35
14689;BME280;7432;48.728;9.154;2023-03-01T07:46:34;97051.25;;;5.76;54.76
14689;BME280;7432;48.728;9.154;2023-03-01T07:49:02;97026.41;;;6.32;52.06
14689;BME280;7432;48.728;9.154;2023-03-01T07:51:29;97036.50;;;6.76;51.35
14689;BME280;7432;48.728;9.154;2023-03-01T07:53:56;97031.75;;;6.40;50.79
14689;BME280;7432;48.728;9.154;2023-03-01T07:56:22;97036.13;;;7.73;49.57
14689;BME280;7432;48.728;9.154;2023-03-01T07:58:48;97027.81;;;7.90;47.89
14689;BME280;7432;48.728;9.154;2023-03-01T08:01:16;97022.56;;;8.51;45.70
14689;BME280;7432;48.728;9.154;2023-03-01T08:03:43;97025.94;;;8.99;44.93
14689;BME280;7432;48.728;9.154;2023-03-01T08:06:13;97033.72;;;9.73;42.93
14689;BME280;7432;48.728;9.154;2023-03-01T08:08:39;97021.78;;;10.18;43.15
14689;BME280;7432;48.728;9.154;2023-03-01T08:11:09;97023.25;;;10.21;42.00
14689;BME280;7432;48.728;9.154;2023-03-01T08:13:36;97037.09;;;9.27;43.51
14689;BME280;7432;48.728;9.154;2023-03-01T08:16:03;97043.41;;;9.61;42.96
14689;BME280;7432;48.728;9.154;2023-03-01T08:18:29;97035.44;;;9.82;42.25
14689;BME280;7432;48.728;9.154;2023-03-01T08:21:01;97028.06;;;9.13;43.93
14689;BME280;7432;48.728;9.154;2023-03-01T08:23:29;97031.94;;;9.83;42.15
14689;BME280;7432;48.728;9.154;2023-03-01T08:26:03;97028.13;;;10.94;40.24
14689;BME280;7432;48.728;9.154;2023-03-01T08:28:29;97036.69;;;12.56;36.72
14689;BME280;7432;48.728;9.154;2023-03-01T08:30:56;97038.38;;;13.37;36.51
14689;BME280;7432;48.728;9.154;2023-03-01T08:33:22;97033.97;;;13.62;34.88
14689;BME280;7432;48.728;9.154;2023-03-01T08:35:49;97030.88;;;14.75;33.63
14689;BME280;7432;48.728;9.154;2023-03-01T08:38:15;97028.13;;;15.14;32.88
14689;BME280;7432;48.728;9.154;2023-03-01T08:40:43;97031.22;;;15.84;31.72
14689;BME280;7432;48.728;9.154;2023-03-01T08:43:09;97033.00;;;16.48;30.58
14689;BME280;7432;48.728;9.154;2023-03-01T08:45:36;97033.69;;;18.45;28.95
14689;BME280;7432;48.728;9.154;2023-03-01T08:48:02;97034.50;;;18.45;28.26
14689;BME280;7432;48.728;9.154;2023-03-01T08:50:29;97028.78;;;19.94;27.05
14689;BME280;7432;48.728;9.154;2023-03-01T08:52:55;97024.34;;;21.21;25.92
14689;BME280;7432;48.728;9.154;2023-03-01T08:55:21;97033.34;;;20.11;26.29
14689;BME280;7432;48.728;9.154;2023-03-01T08:57:49;97022.28;;;17.64;28.43
14689;BME280;7432;48.728;9.154;2023-03-01T09:00:16;97019.28;;;17.67;28.62
14689;BME280;7432;48.728;9.154;2023-03-01T09:02:43;97014.66;;;18.03;27.59
14689;BME280;7432;48.728;9.154;2023-03-01T09:05:09;97011.94;;;18.78;27.08
14689;BME280;7432;48.728;9.154;2023-03-01T09:07:35;97013.97;;;18.96;26.99
14689;BME280;7432;48.728;9.154;2023-03-01T09:10:02;97014.78;;;19.16;26.55
14689;BME280;7432;48.728;9.154;2023-03-01T09:12:29;97004.59;;;17.32;28.70
14689;BME280;7432;48.728;9.154;2023-03-01T09:14:56;96998.16;;;15.63;29.67
14689;BME280;7432;48.728;9.154;2023-03-01T09:17:23;96991.19;;;14.74;31.57
14689;BME280;7432;48.728;9.154;2023-03-01T09:19:49;96994.25;;;15.67;30.40
14689;BME280;7432;48.728;9.154;2023-03-01T09:22:15;96982.81;;;15.39;30.77
14689;BME280;7432;48.728;9.154;2023-03-01T09:24:42;96987.31;;;12.75;34.55
14689;BME280;7432;48.728;9.154;2023-03-01T09:27:08;96981.59;;;12.23;34.53
14689;BME280;7432;48.728;9.154;2023-03-01T09:29:36;96978.31;;;10.50;38.02
14689;BME280;7432;48.728;9.154;2023-03-01T09:32:04;96978.25;;;8.58;42.28
14689;BME280;7432;48.728;9.154;2023-03-01T09:34:30;96975.78;;;7.59;44.87
14689;BME280;7432;48.728;9.154;2023-03-01T09:37:17;96975.63;;;7.00;46.14
14689;BME280;7432;48.728;9.154;2023-03-01T09:39:43;96980.97;;;6.56;47.38
14689;BME280;7432;48.728;9.154;2023-03-01T09:42:11;96980.25;;;6.02;48.83
14689;BME280;7432;48.728;9.154;2023-03-01T09:44:43;96981.84;;;6.14;48.81
14689;BME280;7432;48.728;9.154;2023-03-01T09:47:17;96973.56;;;5.34;51.56
14689;BME280;7432;48.728;9.154;2023-03-01T09:49:50;96978.34;;;5.16;52.19
14689;BME280;7432;48.728;9.154;2023-03-01T09:52:24;96981.13;;;5.24;51.88
14689;BME280;7432;48.728;9.154;2023-03-01T09:54:54;96966.66;;;4.79;53.33
14689;BME280;7432;48.728;9.154;2023-03-01T09:57:28;96967.75;;;5.10;52.31
14689;BME280;7432;48.728;9.154;2023-03-01T10:00:03;96965.28;;;4.75;53.20
14689;BME280;7432;48.728;9.154;2023-03-01T10:02:39;96972.50;;;5.03;54.62
14689;BME280;7432;48.728;9.154;2023-03-01T10:05:25;96967.06;;;4.62;54.46
14689;BME280;7432;48.728;9.154;2023-03-01T10:08:01;96963.47;;;4.53;54.36
14689;BME280;7432;48.728;9.154;2023-03-01T10:10:33;96962.44;;;4.56;55.24
14689;BME280;7432;48.728;9.154;2023-03-01T10:13:04;96954.56;;;4.70;55.93
14689;BME280;7432;48.728;9.154;2023-03-01T10:15:38;96960.75;;;4.90;54.14
14689;BME280;7432;48.728;9.154;2023-03-01T10:18:12;96955.84;;;4.75;54.32
14689;BME280;7432;48.728;9.154;2023-03-01T10:20:48;96941.16;;;4.90;52.88
14689;BME280;7432;48.728;9.154;2023-03-01T10:23:17;96941.63;;;5.06;53.79
14689;BME280;7432;48.728;9.154;2023-03-01T10:25:51;96935.97;;;4.92;54.24
14689;BME280;7432;48.728;9.154;2023-03-01T10:28:27;96932.91;;;4.87;54.66
14689;BME280;7432;48.728;9.154;2023-03-01T10:30:56;96910.22;;;4.38;54.78
14689;BME280;7432;48.728;9.154;2023-03-01T10:33:27;96927.03;;;4.40;55.16
14689;BME280;7432;48.728;9.154;2023-03-01T10:35:55;96930.66;;;4.49;55.58
14689;BME280;7432;48.728;9.154;2023-03-01T10:38:22;96913.31;;;4.30;54.66
14689;BME280;7432;48.728;9.154;2023-03-01T10:40:54;96926.50;;;4.48;55.16
14689;BME280;7432;48.728;9.154;2023-03-01T10:43:22;96932.28;;;4.50;55.86
14689;BME280;7432;48.728;9.154;2023-03-01T10:45:49;96924.97;;;4.56;55.08
14689;BME280;7432;48.728;9.154;2023-03-01T10:48:17;96929.44;;;4.76;54.72
14689;BME280;7432;48.728;9.154;2023-03-01T10:50:46;96926.19;;;4.74;55.33
14689;BME280;7432;48.728;9.154;2023-03-01T10:53:22;96924.56;;;4.85;54.63
14689;BME280;7432;48.728;9.154;2023-03-01T10:55:57;96917.03;;;4.37;55.86
14689;BME280;7432;48.728;9.154;2023-03-01T10:58:24;96910.03;;;4.52;55.11
14689;BME280;7432;48.728;9.154;2023-03-01T11:00:52;96909.22;;;4.62;54.72
14689;BME280;7432;48.728;9.154;2023-03-01T11:03:22;96913.03;;;4.57;56.32
14689;BME280;7432;48.728;9.154;2023-03-01T11:05:59;96898.69;;;4.56;55.80
14689;BME280;7432;48.728;9.154;2023-03-01T11:08:37;96896.47;;;4.62;54.88
14689;BME280;7432;48.728;9.154;2023-03-01T11:11:17;96890.72;;;4.71;55.05
14689;BME280;7432;48.728;9.154;2023-03-01T11:13:51;96897.09;;;4.99;54.25
14689;BME280;7432;48.728;9.154;2023-03-01T11:16:23;96892.81;;;5.11;54.61
14689;BME280;7432;48.728;9.154;2023-03-01T11:18:57;96885.50;;;5.06;54.73
14689;BME280;7432;48.728;9.154;2023-03-01T11:21:26;96881.78;;;5.10;53.57
14689;BME280;7432;48.728;9.154;2023-03-01T11:23:54;96872.28;;;5.12;53.81
14689;BME280;7432;48.728;9.154;2023-03-01T11:26:22;96874.69;;;5.03;54.33
14689;BME280;7432;48.728;9.154;2023-03-01T11:28:51;96861.16;;;5.13;53.41
14689;BME280;7432;48.728;9.154;2023-03-01T11:31:21;96847.78;;;5.21;53.58
14689;BME280;7432;48.728;9.154;2023-03-01T11:33:53;96849.66;;;5.08;54.67
14689;BME280;7432;48.728;9.154;2023-03-01T11:36:29;96835.06;;;4.99;54.16
14689;BME280;7432;48.728;9.154;2023-03-01T11:39:02;96845.13;;;5.00;54.51
14689;BME280;7432;48.728;9.154;2023-03-01T11:41:31;96852.22;;;4.97;54.18
14689;BME280;7432;48.728;9.154;2023-03-01T11:44:01;96839.34;;;4.98;54.12
14689;BME280;7432;48.728;9.154;2023-03-01T11:46:38;96847.56;;;5.02;54.24
14689;BME280;7432;48.728;9.154;2023-03-01T11:49:21;96835.97;;;4.98;54.23
14689;BME280;7432;48.728;9.154;2023-03-01T11:51:59;96847.34;;;5.05;54.45
14689;BME280;7432;48.728;9.154;2023-03-01T11:54:39;96834.34;;;5.08;54.46
14689;BME280;7432;48.728;9.154;2023-03-01T11:57:15;96830.84;;;4.98;54.64
14689;BME280;7432;48.728;9.154;2023-03-01T12:00:06;96816.97;;;5.02;54.88
14689;BME280;7432;48.728;9.154;2023-03-01T12:05:54;96805.00;;;5.13;55.50
14689;BME280;7432;48.728;9.154;2023-03-01T12:08:33;96816.56;;;5.28;54.65
14689;BME280;7432;48.728;9.154;2023-03-01T12:11:12;96817.94;;;5.32;54.43
14689;BME280;7432;48.728;9.154;2023-03-01T12:14:17;96797.06;;;5.27;53.70
14689;BME280;7432;48.728;9.154;2023-03-01T12:17:16;96798.25;;;5.12;54.30
14689;BME280;7432;48.728;9.154;2023-03-01T12:20:00;96784.38;;;5.37;54.63
14689;BME280;7432;48.728;9.154;2023-03-01T12:22:32;96782.66;;;5.37;54.26
14689;BME280;7432;48.728;9.154;2023-03-01T12:25:21;96775.19;;;5.46;54.97
14689;BME280;7432;48.728;9.154;2023-03-01T12:28:19;96767.53;;;5.46;53.24
14689;BME280;7432;48.728;9.154;2023-03-01T12:31:05;96765.41;;;5.51;53.46
14689;BME280;7432;48.728;9.154;2023-03-01T12:33:41;96762.94;;;5.60;54.17
14689;BME280;7432;48.728;9.154;2023-03-01T12:36:23;96757.78;;;5.71;53.82
14689;BME280;7432;48.728;9.154;2023-03-01T12:39:00;96762.00;;;5.61;53.30
14689;BME280;7432;48.728;9.154;2023-03-01T12:41:41;96762.59;;;5.65;53.43
14689;BME280;7432;48.728;9.154;2023-03-01T12:44:27;96751.16;;;5.69;53.61
14689;BME280;7432;48.728;9.154;2023-03-01T12:47:07;96748.75;;;5.67;53.19
14689;BME280;7432;48.728;9.154;2023-03-01T12:49:40;96742.09;;;5.76;53.56
14689;BME280;7432;48.728;9.154;2023-03-01T12:52:13;96720.69;;;5.77;54.14
14689;BME280;7432;48.728;9.154;2023-03-01T12:54:41;96719.84;;;5.87;53.04
14689;BME280;7432;48.728;9.154;2023-03-01T12:57:15;96722.22;;;6.00;52.10
14689;BME280;7432;48.728;9.154;2023-03-01T12:59:52;96721.56;;;5.98;53.07
14689;BME280;7432;48.728;9.154;2023-03-01T13:02:33;96708.84;;;5.87;53.08
14689;BME280;7432;48.728;9.154;2023-03-01T13:05:15;96712.69;;;6.02;53.52
14689;BME280;7432;48.728;9.154;2023-03-01T13:07:52;96711.38;;;6.08;53.05
14689;BME280;7432;48.728;9.154;2023-03-01T13:10:25;96708.25;;;6.04;52.66
14689;BME280;7432;48.728;9.154;2023-03-01T13:13:08;96701.78;;;6.00;52.59
14689;BME280;7432;48.728;9.154;2023-03-01T13:15:37;96703.38;;;6.01;53.31
14689;BME280;7432;48.728;9.154;2023-03-01T13:18:31;96705.16;;;6.01;52.97
14689;BME280;7432;48.728;9.154;2023-03-01T13:21:00;96714.34;;;6.13;53.44
14689;BME280;7432;48.728;9.154;2023-03-01T13:23:30;96703.84;;;6.06;52.58
14689;BME280;7432;48.728;9.154;2023-03-01T13:26:14;96715.84;;;6.15;52.83
14689;BME280;7432;48.728;9.154;2023-03-01T13:29:00;96703.44;;;6.11;52.54
14689;BME280;7432;48.728;9.154;2023-03-01T13:34:46;96716.53;;;6.17;52.94